sensor_id;sensor_type;location;lat;lon;timestamp;temperature;humidity
44117;DHT22;29781;49.480;8.512;2024-01-15T00:02:12;-1.00;99.90
44117;DHT22;29781;49.480;8.512;2024-01-15T00:04:38;-1.10;99.90
44117;DHT22;29781;49.480;8.512;2024-01-15T00:07:05;-1.20;99.90
44117;DHT22;29781;49.480;8.512;2024-01-15T00:09:30;-1.20;99.90
44117;DHT22;29781;49.480;8.512;2024-01-15T00:11:56;-1.10;99.90
44117;DHT22;29781;49.480;8.512;2024-01-15T00:14:22;-1.00;99.90
44117;DHT22;29781;49.480;8.512;2024-01-15T00:16:47;-1.00;99.90
44117;DHT22;29781;49.480;8.512;2024-01-15T00:19:15;-1.00;99.90
44117;DHT22;29781;49.480;8.512;2024-01-15T00:21:41;-0.90;99.90
44117;DHT22;29781;49.480;8.512;2024-01-15T00:24:06;-0.90;99.90
44117;DHT22;29781;49.480;8.512;2024-01-15T00:26:32;-0.90;99.90
44117;DHT22;29781;49.480;8.512;2024-01-15T00:28:57;-0.90;99.90
44117;DHT22;29781;49.480;8.512;2024-01-15T00:31:23;-0.90;99.90
44117;DHT22;29781;49.480;8.512;2024-01-15T00:33:48;-1.00;99.90
44117;DHT22;29781;49.480;8.512;2024-01-15T00:36:14;-1.10;99.90
44117;DHT22;29781;49.480;8.512;2024-01-15T00:38:40;-1.10;99.90
44117;DHT22;29781;49.480;8.512;2024-01-15T00:41:05;-1.10;99.90
44117;DHT22;29781;49.480;8.512;2024-01-15T00:43:31;-1.00;99.90
44117;DHT22;29781;49.480;8.512;2024-01-15T00:45:56;-1.10;99.90
44117;DHT22;29781;49.480;8.512;2024-01-15T00:48:22;-1.10;99.90
44117;DHT22;29781;49.480;8.512;2024-01-15T00:50:47;-1.10;99.90
44117;DHT22;29781;49.480;8.512;2024-01-15T00:53:13;-1.10;99.90
44117;DHT22;29781;49.480;8.512;2024-01-15T00:55:38;-1.10;99.90
44117;DHT22;29781;49.480;8.512;2024-01-15T00:58:04;-1.20;99.90
44117;DHT22;29781;49.480;8.512;2024-01-15T01:00:29;-1.10;99.90
44117;DHT22;29781;49.480;8.512;2024-01-15T01:02:55;-1.10;99.90
44117;DHT22;29781;49.480;8.512;2024-01-15T01:05:20;-1.00;99.90
44117;DHT22;29781;49.480;8.512;2024-01-15T01:07:46;-1.00;99.90
44117;DHT22;29781;49.480;8.512;2024-01-15T01:10:11;-1.00;99.90
44117;DHT22;29781;49.480;8.512;2024-01-15T01:12:37;-1.00;99.90
44117;DHT22;29781;49.480;8.512;2024-01-15T01:15:03;-1.00;99.90
44117;DHT22;29781;49.480;8.512;2024-01-15T01:17:28;-1.00;99.90
44117;DHT22;29781;49.480;8.512;2024-01-15T01:19:54;-0.90;99.90
44117;DHT22;29781;49.480;8.512;2024-01-15T01:22:19;-0.90;99.90
44117;DHT22;29781;49.480;8.512;2024-01-15T01:24:45;-0.80;99.90
44117;DHT22;29781;49.480;8.512;2024-01-15T01:27:10;-0.90;99.90
44117;DHT22;29781;49.480;8.512;2024-01-15T01:29:36;-0.90;99.90
44117;DHT22;29781;49.480;8.512;2024-01-15T01:32:01;-0.90;99.90
44117;DHT22;29781;49.480;8.512;2024-01-15T01:34:27;-0.90;99.90
44117;DHT22;29781;49.480;8.512;2024-01-15T01:36:53;-0.90;99.90
44117;DHT22;29781;49.480;8.512;2024-01-15T01:39:18;-0.90;99.90
44117;DHT22;29781;49.480;8.512;2024-01-15T01:41:44;-0.90;99.90
44117;DHT22;29781;49.480;8.512;2024-01-15T01:44:09;-1.00;99.90
44117;DHT22;29781;49.480;8.512;2024-01-15T01:46:36;-0.90;99.90
44117;DHT22;29781;49.480;8.512;2024-01-15T01:49:06;-0.90;99.90
44117;DHT22;29781;49.480;8.512;2024-01-15T01:51:34;-0.90;99.90
44117;DHT22;29781;49.480;8.512;2024-01-15T01:54:00;-0.90;99.90
44117;DHT22;29781;49.480;8.512;2024-01-15T01:56:26;-0.80;99.90
44117;DHT22;29781;49.480;8.512;2024-01-15T01:58:52;-0.80;99.90
44117;DHT22;29781;49.480;8.512;2024-01-15T02:01:18;-0.80;99.90
44117;DHT22;29781;49.480;8.512;2024-01-15T02:03:45;-0.80;99.90
44117;DHT22;29781;49.480;8.512;2024-01-15T02:06:10;-0.80;99.90
44117;DHT22;29781;49.480;8.512;2024-01-15T02:08:36;-0.80;99.90
44117;DHT22;29781;49.480;8.512;2024-01-15T02:11:02;-0.80;99.90
44117;DHT22;29781;49.480;8.512;2024-01-15T02:13:27;-0.80;99.90
44117;DHT22;29781;49.480;8.512;2024-01-15T02:15:53;-0.90;99.90
44117;DHT22;29781;49.480;8.512;2024-01-15T02:18:19;-1.00;99.90
44117;DHT22;29781;49.480;8.512;2024-01-15T02:20:45;-1.00;99.90
44117;DHT22;29781;49.480;8.512;2024-01-15T02:23:15;-1.00;99.90
44117;DHT22;29781;49.480;8.512;2024-01-15T02:25:45;-1.00;99.90
44117;DHT22;29781;49.480;8.512;2024-01-15T02:28:13;-1.00;99.90
44117;DHT22;29781;49.480;8.512;2024-01-15T02:30:40;-1.00;99.90
44117;DHT22;29781;49.480;8.512;2024-01-15T02:33:07;-1.00;99.90
44117;DHT22;29781;49.480;8.512;2024-01-15T02:35:33;-1.00;99.90
44117;DHT22;29781;49.480;8.512;2024-01-15T02:37:59;-0.90;99.90
44117;DHT22;29781;49.480;8.512;2024-01-15T02:40:25;-0.90;99.90
44117;DHT22;29781;49.480;8.512;2024-01-15T02:42:50;-1.00;99.90
44117;DHT22;29781;49.480;8.512;2024-01-15T02:45:16;-1.00;99.90
44117;DHT22;29781;49.480;8.512;2024-01-15T02:47:42;-0.90;99.90
44117;DHT22;29781;49.480;8.512;2024-01-15T02:50:08;-1.00;99.90
44117;DHT22;29781;49.480;8.512;2024-01-15T02:52:33;-1.00;99.90
44117;DHT22;29781;49.480;8.512;2024-01-15T02:54:59;-1.10;99.90
44117;DHT22;29781;49.480;8.512;2024-01-15T02:57:24;-1.30;99.90
44117;DHT22;29781;49.480;8.512;2024-01-15T02:59:50;-1.40;99.90
44117;DHT22;29781;49.480;8.512;2024-01-15T03:02:15;-1.20;99.90
44117;DHT22;29781;49.480;8.512;2024-01-15T03:04:44;-0.90;99.90
44117;DHT22;29781;49.480;8.512;2024-01-15T03:07:10;-0.80;99.90
44117;DHT22;29781;49.480;8.512;2024-01-15T03:09:35;-0.80;99.90
44117;DHT22;29781;49.480;8.512;2024-01-15T03:12:01;-0.80;99.90
44117;DHT22;29781;49.480;8.512;2024-01-15T03:14:26;-0.70;99.90
44117;DHT22;29781;49.480;8.512;2024-01-15T03:16:52;-0.70;99.90
44117;DHT22;29781;49.480;8.512;2024-01-15T03:19:18;-0.80;99.90
44117;DHT22;29781;49.480;8.512;2024-01-15T03:21:43;-0.70;99.90
44117;DHT22;29781;49.480;8.512;2024-01-15T03:24:09;-0.60;99.90
44117;DHT22;29781;49.480;8.512;2024-01-15T03:26:34;-0.60;99.90
44117;DHT22;29781;49.480;8.512;2024-01-15T03:29:00;-0.80;99.90
44117;DHT22;29781;49.480;8.512;2024-01-15T03:31:26;-0.90;99.90
44117;DHT22;29781;49.480;8.512;2024-01-15T03:33:51;-0.90;99.90
44117;DHT22;29781;49.480;8.512;2024-01-15T03:36:17;-0.90;99.90
44117;DHT22;29781;49.480;8.512;2024-01-15T03:38:42;-0.80;99.90
44117;DHT22;29781;49.480;8.512;2024-01-15T03:41:08;-0.80;99.90
44117;DHT22;29781;49.480;8.512;2024-01-15T03:43:33;-0.80;99.90
44117;DHT22;29781;49.480;8.512;2024-01-15T03:45:59;-0.80;99.90
44117;DHT22;29781;49.480;8.512;2024-01-15T03:48:24;-0.80;99.90
44117;DHT22;29781;49.480;8.512;2024-01-15T03:50:50;-0.80;99.90
44117;DHT22;29781;49.480;8.512;2024-01-15T03:53:15;-0.80;99.90
44117;DHT22;29781;49.480;8.512;2024-01-15T03:55:42;-0.90;99.90
44117;DHT22;29781;49.480;8.512;2024-01-15T03:58:07;-0.80;99.90
44117;DHT22;29781;49.480;8.512;2024-01-15T04:00:33;-0.80;99.90
44117;DHT22;29781;49.480;8.512;2024-01-15T04:02:59;-0.80;99.90
44117;DHT22;29781;49.480;8.512;2024-01-15T04:05:24;-0.90;99.90
44117;DHT22;29781;49.480;8.512;2024-01-15T04:07:50;-0.90;99.90
44117;DHT22;29781;49.480;8.512;2024-01-15T04:10:15;-0.90;99.90
44117;DHT22;29781;49.480;8.512;2024-01-15T04:12:41;-0.90;99.90
44117;DHT22;29781;49.480;8.512;2024-01-15T04:15:07;-0.90;99.90
44117;DHT22;29781;49.480;8.512;2024-01-15T04:17:32;-0.90;99.90
44117;DHT22;29781;49.480;8.512;2024-01-15T04:19:58;-1.00;99.90
44117;DHT22;29781;49.480;8.512;2024-01-15T04:22:24;-0.90;99.90
44117;DHT22;29781;49.480;8.512;2024-01-15T04:24:50;-0.80;99.90
44117;DHT22;29781;49.480;8.512;2024-01-15T04:27:18;-0.70;99.90
44117;DHT22;29781;49.480;8.512;2024-01-15T04:29:44;-0.60;99.90
44117;DHT22;29781;49.480;8.512;2024-01-15T04:32:10;-0.60;99.90
44117;DHT22;29781;49.480;8.512;2024-01-15T04:34:35;-0.60;99.90
44117;DHT22;29781;49.480;8.512;2024-01-15T04:37:01;-0.70;99.90
44117;DHT22;29781;49.480;8.512;2024-01-15T04:39:26;-0.80;99.90
44117;DHT22;29781;49.480;8.512;2024-01-15T04:41:52;-0.70;99.90
44117;DHT22;29781;49.480;8.512;2024-01-15T04:44:18;-0.70;99.90
44117;DHT22;29781;49.480;8.512;2024-01-15T04:46:44;-0.70;99.90
44117;DHT22;29781;49.480;8.512;2024-01-15T04:49:10;-0.70;99.90
44117;DHT22;29781;49.480;8.512;2024-01-15T04:51:35;-0.70;99.90
44117;DHT22;29781;49.480;8.512;2024-01-15T04:54:01;-0.70;99.90
44117;DHT22;29781;49.480;8.512;2024-01-15T04:56:26;-0.70;99.90
44117;DHT22;29781;49.480;8.512;2024-01-15T04:58:52;-0.70;99.90
44117;DHT22;29781;49.480;8.512;2024-01-15T05:01:17;-0.80;99.90
44117;DHT22;29781;49.480;8.512;2024-01-15T05:03:43;-0.60;99.90
44117;DHT22;29781;49.480;8.512;2024-01-15T05:06:09;-0.50;99.90
44117;DHT22;29781;49.480;8.512;2024-01-15T05:08:34;-0.50;99.90
44117;DHT22;29781;49.480;8.512;2024-01-15T05:11:00;-0.50;99.90
44117;DHT22;29781;49.480;8.512;2024-01-15T05:13:25;-0.60;99.90
44117;DHT22;29781;49.480;8.512;2024-01-15T05:15:51;-0.60;99.90
44117;DHT22;29781;49.480;8.512;2024-01-15T05:18:17;-0.60;99.90
44117;DHT22;29781;49.480;8.512;2024-01-15T05:20:42;-0.60;99.90
44117;DHT22;29781;49.480;8.512;2024-01-15T05:23:08;-0.60;99.90
44117;DHT22;29781;49.480;8.512;2024-01-15T05:25:33;-0.60;99.90
44117;DHT22;29781;49.480;8.512;2024-01-15T05:27:59;-0.60;99.90
44117;DHT22;29781;49.480;8.512;2024-01-15T05:30:24;-0.50;99.90
44117;DHT22;29781;49.480;8.512;2024-01-15T05:32:50;-0.50;99.90
44117;DHT22;29781;49.480;8.512;2024-01-15T05:35:16;-0.50;99.90
44117;DHT22;29781;49.480;8.512;2024-01-15T05:37:44;-0.50;99.90
44117;DHT22;29781;49.480;8.512;2024-01-15T05:40:11;-0.40;99.90
44117;DHT22;29781;49.480;8.512;2024-01-15T05:42:36;-0.50;99.90
44117;DHT22;29781;49.480;8.512;2024-01-15T05:45:02;-0.50;99.90
44117;DHT22;29781;49.480;8.512;2024-01-15T05:47:30;-0.50;99.90
44117;DHT22;29781;49.480;8.512;2024-01-15T05:49:56;-0.50;99.90
44117;DHT22;29781;49.480;8.512;2024-01-15T05:52:22;-0.40;99.90
44117;DHT22;29781;49.480;8.512;2024-01-15T05:54:47;-0.40;99.90
44117;DHT22;29781;49.480;8.512;2024-01-15T05:57:13;-1.10;99.90
44117;DHT22;29781;49.480;8.512;2024-01-15T05:59:38;-0.40;99.90
44117;DHT22;29781;49.480;8.512;2024-01-15T06:02:04;-0.50;99.90
44117;DHT22;29781;49.480;8.512;2024-01-15T06:04:30;-0.50;99.90
44117;DHT22;29781;49.480;8.512;2024-01-15T06:06:55;-0.70;99.90
44117;DHT22;29781;49.480;8.512;2024-01-15T06:09:21;-0.60;99.90
44117;DHT22;29781;49.480;8.512;2024-01-15T06:11:46;-0.50;99.90
44117;DHT22;29781;49.480;8.512;2024-01-15T06:14:12;-0.40;99.90
44117;DHT22;29781;49.480;8.512;2024-01-15T06:16:37;0.00;99.90
44117;DHT22;29781;49.480;8.512;2024-01-15T06:19:03;-0.60;99.90
44117;DHT22;29781;49.480;8.512;2024-01-15T06:21:28;-0.70;99.90
44117;DHT22;29781;49.480;8.512;2024-01-15T06:23:54;-0.80;99.90
44117;DHT22;29781;49.480;8.512;2024-01-15T06:26:22;-0.60;99.90
44117;DHT22;29781;49.480;8.512;2024-01-15T06:28:48;-0.50;99.90
44117;DHT22;29781;49.480;8.512;2024-01-15T06:31:13;-0.40;99.90
44117;DHT22;29781;49.480;8.512;2024-01-15T06:33:39;-0.30;99.90
44117;DHT22;29781;49.480;8.512;2024-01-15T06:36:05;-0.30;99.90
44117;DHT22;29781;49.480;8.512;2024-01-15T06:38:31;-0.20;99.90
44117;DHT22;29781;49.480;8.512;2024-01-15T06:40:56;-0.10;99.90
44117;DHT22;29781;49.480;8.512;2024-01-15T06:43:22;0.00;99.90
44117;DHT22;29781;49.480;8.512;2024-01-15T06:45:47;0.00;99.90
44117;DHT22;29781;49.480;8.512;2024-01-15T06:48:13;0.00;99.90
44117;DHT22;29781;49.480;8.512;2024-01-15T06:50:41;0.00;99.90
44117;DHT22;29781;49.480;8.512;2024-01-15T06:53:07;0.00;99.90
44117;DHT22;29781;49.480;8.512;2024-01-15T06:55:32;0.00;99.90
44117;DHT22;29781;49.480;8.512;2024-01-15T06:57:58;0.10;99.90
44117;DHT22;29781;49.480;8.512;2024-01-15T07:00:23;0.10;99.90
44117;DHT22;29781;49.480;8.512;2024-01-15T07:02:49;0.00;99.90
44117;DHT22;29781;49.480;8.512;2024-01-15T07:05:14;0.00;99.90
44117;DHT22;29781;49.480;8.512;2024-01-15T07:07:40;0.00;99.90
44117;DHT22;29781;49.480;8.512;2024-01-15T07:10:06;0.10;99.90
44117;DHT22;29781;49.480;8.512;2024-01-15T07:12:32;0.00;99.90
44117;DHT22;29781;49.480;8.512;2024-01-15T07:14:58;0.00;99.90
44117;DHT22;29781;49.480;8.512;2024-01-15T07:17:23;0.00;99.90
44117;DHT22;29781;49.480;8.512;2024-01-15T07:19:49;0.00;99.90
44117;DHT22;29781;49.480;8.512;2024-01-15T07:22:14;0.00;99.90
44117;DHT22;29781;49.480;8.512;2024-01-15T07:24:42;0.00;99.90
44117;DHT22;29781;49.480;8.512;2024-01-15T07:27:08;0.00;99.90
44117;DHT22;29781;49.480;8.512;2024-01-15T07:29:34;0.00;99.90
44117;DHT22;29781;49.480;8.512;2024-01-15T07:32:02;0.00;99.90
44117;DHT22;29781;49.480;8.512;2024-01-15T07:34:28;0.10;99.90
44117;DHT22;29781;49.480;8.512;2024-01-15T07:36:54;0.10;99.90
44117;DHT22;29781;49.480;8.512;2024-01-15T07:39:19;0.10;99.90
44117;DHT22;29781;49.480;8.512;2024-01-15T07:41:45;0.00;99.90
44117;DHT22;29781;49.480;8.512;2024-01-15T07:44:10;0.10;99.90
44117;DHT22;29781;49.480;8.512;2024-01-15T07:46:36;0.00;99.90
44117;DHT22;29781;49.480;8.512;2024-01-15T07:49:01;0.10;99.90
44117;DHT22;29781;49.480;8.512;2024-01-15T07:51:27;0.10;99.90
44117;DHT22;29781;49.480;8.512;2024-01-15T07:53:53;0.20;99.90
44117;DHT22;29781;49.480;8.512;2024-01-15T07:56:19;0.20;99.90
44117;DHT22;29781;49.480;8.512;2024-01-15T07:58:45;0.30;99.90
44117;DHT22;29781;49.480;8.512;2024-01-15T08:01:10;0.30;99.90
44117;DHT22;29781;49.480;8.512;2024-01-15T08:03:36;0.30;99.90
44117;DHT22;29781;49.480;8.512;2024-01-15T08:06:02;0.30;99.90
44117;DHT22;29781;49.480;8.512;2024-01-15T08:08:27;0.30;99.90
44117;DHT22;29781;49.480;8.512;2024-01-15T08:10:53;0.30;99.90
44117;DHT22;29781;49.480;8.512;2024-01-15T08:13:19;0.30;99.90
44117;DHT22;29781;49.480;8.512;2024-01-15T08:15:45;0.30;99.90
44117;DHT22;29781;49.480;8.512;2024-01-15T08:18:11;0.40;99.90
44117;DHT22;29781;49.480;8.512;2024-01-15T08:20:36;0.40;99.90
44117;DHT22;29781;49.480;8.512;2024-01-15T08:23:02;0.40;99.90
44117;DHT22;29781;49.480;8.512;2024-01-15T08:25:28;0.40;99.90
44117;DHT22;29781;49.480;8.512;2024-01-15T08:27:54;0.50;99.90
44117;DHT22;29781;49.480;8.512;2024-01-15T08:30:19;0.40;99.90
44117;DHT22;29781;49.480;8.512;2024-01-15T08:32:46;0.40;99.90
44117;DHT22;29781;49.480;8.512;2024-01-15T08:35:11;0.40;99.90
44117;DHT22;29781;49.480;8.512;2024-01-15T08:37:38;0.40;99.90
44117;DHT22;29781;49.480;8.512;2024-01-15T08:40:04;0.40;99.90
44117;DHT22;29781;49.480;8.512;2024-01-15T08:42:30;0.40;99.90
44117;DHT22;29781;49.480;8.512;2024-01-15T08:44:55;0.40;99.90
44117;DHT22;29781;49.480;8.512;2024-01-15T08:47:20;0.40;99.90
44117;DHT22;29781;49.480;8.512;2024-01-15T08:49:46;0.40;99.90
44117;DHT22;29781;49.480;8.512;2024-01-15T08:52:12;0.50;99.90
44117;DHT22;29781;49.480;8.512;2024-01-15T08:54:39;0.40;99.90
44117;DHT22;29781;49.480;8.512;2024-01-15T08:57:04;0.40;99.90
44117;DHT22;29781;49.480;8.512;2024-01-15T08:59:30;0.40;99.90
44117;DHT22;29781;49.480;8.512;2024-01-15T09:01:55;0.50;99.90
44117;DHT22;29781;49.480;8.512;2024-01-15T09:04:23;0.50;99.90
44117;DHT22;29781;49.480;8.512;2024-01-15T09:06:48;0.50;99.90
44117;DHT22;29781;49.480;8.512;2024-01-15T09:09:14;0.50;99.90
44117;DHT22;29781;49.480;8.512;2024-01-15T09:11:40;0.60;99.90
44117;DHT22;29781;49.480;8.512;2024-01-15T09:14:06;0.70;99.90
44117;DHT22;29781;49.480;8.512;2024-01-15T09:16:33;0.70;99.90
44117;DHT22;29781;49.480;8.512;2024-01-15T09:18:58;0.80;99.90
44117;DHT22;29781;49.480;8.512;2024-01-15T09:21:24;0.80;99.90
44117;DHT22;29781;49.480;8.512;2024-01-15T09:23:50;0.80;99.90
44117;DHT22;29781;49.480;8.512;2024-01-15T09:26:16;0.80;99.90
44117;DHT22;29781;49.480;8.512;2024-01-15T09:28:41;0.70;99.90
44117;DHT22;29781;49.480;8.512;2024-01-15T09:31:07;0.70;99.90
44117;DHT22;29781;49.480;8.512;2024-01-15T09:33:33;0.70;99.90
44117;DHT22;29781;49.480;8.512;2024-01-15T09:36:02;0.70;99.90
44117;DHT22;29781;49.480;8.512;2024-01-15T09:38:31;0.80;99.90
44117;DHT22;29781;49.480;8.512;2024-01-15T09:40:57;0.80;99.90
44117;DHT22;29781;49.480;8.512;2024-01-15T09:43:23;0.80;99.90
44117;DHT22;29781;49.480;8.512;2024-01-15T09:45:49;0.80;99.90
44117;DHT22;29781;49.480;8.512;2024-01-15T09:48:15;0.80;99.90
44117;DHT22;29781;49.480;8.512;2024-01-15T09:50:41;0.90;99.90
44117;DHT22;29781;49.480;8.512;2024-01-15T09:53:07;0.90;99.90
44117;DHT22;29781;49.480;8.512;2024-01-15T09:55:34;0.90;99.90
44117;DHT22;29781;49.480;8.512;2024-01-15T09:58:00;0.90;99.90
44117;DHT22;29781;49.480;8.512;2024-01-15T10:00:28;1.00;99.90
44117;DHT22;29781;49.480;8.512;2024-01-15T10:02:54;1.00;99.90
44117;DHT22;29781;49.480;8.512;2024-01-15T10:05:19;0.90;99.90
44117;DHT22;29781;49.480;8.512;2024-01-15T10:07:46;0.90;99.90
44117;DHT22;29781;49.480;8.512;2024-01-15T10:10:11;1.10;99.90
44117;DHT22;29781;49.480;8.512;2024-01-15T10:12:38;1.10;99.90
44117;DHT22;29781;49.480;8.512;2024-01-15T10:15:04;1.10;99.90
44117;DHT22;29781;49.480;8.512;2024-01-15T10:17:30;1.10;99.90
44117;DHT22;29781;49.480;8.512;2024-01-15T10:19:57;1.20;99.90
44117;DHT22;29781;49.480;8.512;2024-01-15T10:22:22;1.10;99.90
44117;DHT22;29781;49.480;8.512;2024-01-15T10:24:48;1.00;99.90
44117;DHT22;29781;49.480;8.512;2024-01-15T10:27:14;1.00;99.90
44117;DHT22;29781;49.480;8.512;2024-01-15T10:29:41;1.00;99.90
44117;DHT22;29781;49.480;8.512;2024-01-15T10:32:08;0.90;99.90
44117;DHT22;29781;49.480;8.512;2024-01-15T10:34:37;0.90;99.90
44117;DHT22;29781;49.480;8.512;2024-01-15T10:37:04;1.00;99.90
44117;DHT22;29781;49.480;8.512;2024-01-15T10:39:30;0.90;99.90
44117;DHT22;29781;49.480;8.512;2024-01-15T10:41:56;1.00;99.90
44117;DHT22;29781;49.480;8.512;2024-01-15T10:44:21;1.10;99.90
44117;DHT22;29781;49.480;8.512;2024-01-15T10:46:47;1.10;99.90
44117;DHT22;29781;49.480;8.512;2024-01-15T10:49:13;1.20;99.90
44117;DHT22;29781;49.480;8.512;2024-01-15T10:51:40;1.30;99.90
44117;DHT22;29781;49.480;8.512;2024-01-15T10:54:08;1.30;99.90
44117;DHT22;29781;49.480;8.512;2024-01-15T10:56:36;1.20;99.90
44117;DHT22;29781;49.480;8.512;2024-01-15T10:59:02;1.10;99.90
44117;DHT22;29781;49.480;8.512;2024-01-15T11:01:35;1.10;99.90
44117;DHT22;29781;49.480;8.512;2024-01-15T11:04:01;1.20;99.90
44117;DHT22;29781;49.480;8.512;2024-01-15T11:06:28;1.30;99.90
44117;DHT22;29781;49.480;8.512;2024-01-15T11:08:54;1.30;99.90
44117;DHT22;29781;49.480;8.512;2024-01-15T11:11:21;1.30;99.90
44117;DHT22;29781;49.480;8.512;2024-01-15T11:13:47;1.30;99.90
44117;DHT22;29781;49.480;8.512;2024-01-15T11:16:16;1.20;99.90
44117;DHT22;29781;49.480;8.512;2024-01-15T11:18:43;1.20;99.90
44117;DHT22;29781;49.480;8.512;2024-01-15T11:23:49;1.20;99.90
44117;DHT22;29781;49.480;8.512;2024-01-15T11:26:27;1.20;99.90
44117;DHT22;29781;49.480;8.512;2024-01-15T11:28:54;1.20;99.90
44117;DHT22;29781;49.480;8.512;2024-01-15T11:31:20;1.20;99.90
44117;DHT22;29781;49.480;8.512;2024-01-15T11:33:49;1.20;99.90
44117;DHT22;29781;49.480;8.512;2024-01-15T11:36:15;1.20;99.90
44117;DHT22;29781;49.480;8.512;2024-01-15T11:38:40;1.30;99.90
44117;DHT22;29781;49.480;8.512;2024-01-15T11:41:24;1.20;99.90
44117;DHT22;29781;49.480;8.512;2024-01-15T11:43:50;1.30;99.90
44117;DHT22;29781;49.480;8.512;2024-01-15T11:46:18;1.30;99.90
44117;DHT22;29781;49.480;8.512;2024-01-15T11:48:44;1.30;99.90
44117;DHT22;29781;49.480;8.512;2024-01-15T11:51:13;1.30;99.90
44117;DHT22;29781;49.480;8.512;2024-01-15T11:53:44;1.30;99.90
44117;DHT22;29781;49.480;8.512;2024-01-15T11:56:17;1.40;99.90
44117;DHT22;29781;49.480;8.512;2024-01-15T11:58:43;1.40;99.90
44117;DHT22;29781;49.480;8.512;2024-01-15T12:01:10;1.50;99.90
44117;DHT22;29781;49.480;8.512;2024-01-15T12:03:36;1.50;99.90
44117;DHT22;29781;49.480;8.512;2024-01-15T12:06:01;1.40;99.90
44117;DHT22;29781;49.480;8.512;2024-01-15T12:08:27;1.40;99.90
44117;DHT22;29781;49.480;8.512;2024-01-15T12:10:53;1.50;99.90
44117;DHT22;29781;49.480;8.512;2024-01-15T12:13:19;1.40;99.90
44117;DHT22;29781;49.480;8.512;2024-01-15T12:15:47;1.40;99.90
44117;DHT22;29781;49.480;8.512;2024-01-15T12:18:17;1.50;99.90
44117;DHT22;29781;49.480;8.512;2024-01-15T12:20:45;1.50;99.90
44117;DHT22;29781;49.480;8.512;2024-01-15T12:23:13;1.60;99.90
44117;DHT22;29781;49.480;8.512;2024-01-15T12:25:39;1.40;99.90
44117;DHT22;29781;49.480;8.512;2024-01-15T12:28:05;1.60;99.90
44117;DHT22;29781;49.480;8.512;2024-01-15T12:30:33;1.70;99.90
44117;DHT22;29781;49.480;8.512;2024-01-15T12:33:06;1.60;99.90
44117;DHT22;29781;49.480;8.512;2024-01-15T12:35:33;1.70;99.90
44117;DHT22;29781;49.480;8.512;2024-01-15T12:38:00;1.80;99.90
44117;DHT22;29781;49.480;8.512;2024-01-15T12:40:32;1.70;99.90
44117;DHT22;29781;49.480;8.512;2024-01-15T12:43:01;1.70;99.90
44117;DHT22;29781;49.480;8.512;2024-01-15T12:45:27;1.70;99.90
44117;DHT22;29781;49.480;8.512;2024-01-15T12:47:52;1.70;99.90
44117;DHT22;29781;49.480;8.512;2024-01-15T12:50:18;1.70;99.90
44117;DHT22;29781;49.480;8.512;2024-01-15T12:52:47;1.70;99.90
44117;DHT22;29781;49.480;8.512;2024-01-15T12:55:13;1.70;99.90
44117;DHT22;29781;49.480;8.512;2024-01-15T12:57:39;1.80;99.90
44117;DHT22;29781;49.480;8.512;2024-01-15T13:00:06;1.90;99.90
44117;DHT22;29781;49.480;8.512;2024-01-15T13:02:38;1.80;99.90
44117;DHT22;29781;49.480;8.512;2024-01-15T13:05:07;1.80;99.90
44117;DHT22;29781;49.480;8.512;2024-01-15T13:07:33;1.80;99.90
44117;DHT22;29781;49.480;8.512;2024-01-15T13:09:59;2.00;99.90
44117;DHT22;29781;49.480;8.512;2024-01-15T13:12:25;2.00;99.90
44117;DHT22;29781;49.480;8.512;2024-01-15T13:14:51;2.20;99.90
44117;DHT22;29781;49.480;8.512;2024-01-15T13:17:16;2.10;99.90
44117;DHT22;29781;49.480;8.512;2024-01-15T13:19:42;1.90;99.90
44117;DHT22;29781;49.480;8.512;2024-01-15T13:22:07;2.00;99.90
44117;DHT22;29781;49.480;8.512;2024-01-15T13:24:34;2.00;99.90
44117;DHT22;29781;49.480;8.512;2024-01-15T13:27:02;2.00;99.90
44117;DHT22;29781;49.480;8.512;2024-01-15T13:29:28;2.00;99.90
44117;DHT22;29781;49.480;8.512;2024-01-15T13:31:53;2.00;99.90
44117;DHT22;29781;49.480;8.512;2024-01-15T13:34:19;2.10;99.90
44117;DHT22;29781;49.480;8.512;2024-01-15T13:36:45;2.00;99.90
44117;DHT22;29781;49.480;8.512;2024-01-15T13:39:10;2.10;99.90
44117;DHT22;29781;49.480;8.512;2024-01-15T13:41:36;2.10;99.90
44117;DHT22;29781;49.480;8.512;2024-01-15T13:44:02;2.10;99.90
44117;DHT22;29781;49.480;8.512;2024-01-15T13:46:28;2.10;99.90
44117;DHT22;29781;49.480;8.512;2024-01-15T13:48:55;2.30;99.90
44117;DHT22;29781;49.480;8.512;2024-01-15T13:51:23;2.20;99.90
44117;DHT22;29781;49.480;8.512;2024-01-15T13:53:50;2.20;99.90
44117;DHT22;29781;49.480;8.512;2024-01-15T13:56:16;2.20;99.90
44117;DHT22;29781;49.480;8.512;2024-01-15T13:58:42;2.30;99.90
44117;DHT22;29781;49.480;8.512;2024-01-15T14:01:08;2.30;99.90
44117;DHT22;29781;49.480;8.512;2024-01-15T14:03:34;2.30;99.90
44117;DHT22;29781;49.480;8.512;2024-01-15T14:06:00;2.30;99.90
44117;DHT22;29781;49.480;8.512;2024-01-15T14:08:28;2.30;99.90
44117;DHT22;29781;49.480;8.512;2024-01-15T14:10:53;2.30;99.90
44117;DHT22;29781;49.480;8.512;2024-01-15T14:13:21;2.40;99.90
44117;DHT22;29781;49.480;8.512;2024-01-15T14:15:47;2.30;99.90
44117;DHT22;29781;49.480;8.512;2024-01-15T14:18:14;2.30;99.90
44117;DHT22;29781;49.480;8.512;2024-01-15T14:20:39;2.30;99.90
44117;DHT22;29781;49.480;8.512;2024-01-15T14:23:05;2.30;99.90
44117;DHT22;29781;49.480;8.512;2024-01-15T14:25:31;2.40;99.90
44117;DHT22;29781;49.480;8.512;2024-01-15T14:27:56;2.30;99.90
44117;DHT22;29781;49.480;8.512;2024-01-15T14:30:22;2.30;99.90
44117;DHT22;29781;49.480;8.512;2024-01-15T14:32:47;2.30;99.90
44117;DHT22;29781;49.480;8.512;2024-01-15T14:35:13;2.30;99.90
44117;DHT22;29781;49.480;8.512;2024-01-15T14:37:40;2.20;99.90
44117;DHT22;29781;49.480;8.512;2024-01-15T14:40:06;2.30;99.90
44117;DHT22;29781;49.480;8.512;2024-01-15T14:42:41;2.40;99.90
44117;DHT22;29781;49.480;8.512;2024-01-15T14:45:07;2.50;99.90
44117;DHT22;29781;49.480;8.512;2024-01-15T14:47:40;2.60;99.90
44117;DHT22;29781;49.480;8.512;2024-01-15T14:50:07;2.60;99.90
44117;DHT22;29781;49.480;8.512;2024-01-15T14:52:36;2.50;99.90
44117;DHT22;29781;49.480;8.512;2024-01-15T14:55:02;2.50;99.90
44117;DHT22;29781;49.480;8.512;2024-01-15T14:57:28;2.40;99.90
44117;DHT22;29781;49.480;8.512;2024-01-15T14:59:54;2.40;99.90
44117;DHT22;29781;49.480;8.512;2024-01-15T15:02:20;2.30;99.90
44117;DHT22;29781;49.480;8.512;2024-01-15T15:04:49;2.30;99.90
44117;DHT22;29781;49.480;8.512;2024-01-15T15:07:14;2.30;99.90
44117;DHT22;29781;49.480;8.512;2024-01-15T15:09:40;2.30;99.90
44117;DHT22;29781;49.480;8.512;2024-01-15T15:12:06;2.20;99.90
44117;DHT22;29781;49.480;8.512;2024-01-15T15:14:32;2.20;99.90
44117;DHT22;29781;49.480;8.512;2024-01-15T15:17:04;2.30;99.90
44117;DHT22;29781;49.480;8.512;2024-01-15T15:19:30;2.20;99.90
44117;DHT22;29781;49.480;8.512;2024-01-15T15:21:56;2.30;99.90
44117;DHT22;29781;49.480;8.512;2024-01-15T15:24:23;2.40;99.90
44117;DHT22;29781;49.480;8.512;2024-01-15T15:26:48;2.30;99.90
44117;DHT22;29781;49.480;8.512;2024-01-15T15:29:14;2.50;99.90
44117;DHT22;29781;49.480;8.512;2024-01-15T15:31:42;2.50;99.90
44117;DHT22;29781;49.480;8.512;2024-01-15T15:34:08;2.40;99.90
44117;DHT22;29781;49.480;8.512;2024-01-15T15:36:33;2.40;99.90